Newton, Massachusetts
Current Conditions -  °F | °C
As of 1:56 AM on Friday 28 Nov 2014 (Local Time) from KBED Reporting Station
Light Snow Light Snow  
Wind Chill: -7°   Ceiling: 1000
Heat Index: -2°   Visibility: 4mi
Dew Point: -3°   Wind: 8mph
Humidity: 92%   Direction: 320°NW
Pressure: 29.99"   Gusts: NA
Location:  42.34°N, 71.21°W
Report Text: KBED 280656Z AUTO 32007KT 4SM -SN BR BKN010 OVC024 M02/M03 A2999 RMK AO2 SLP173 P0001 T10221033 TSNO
Loading
Personal Weather Stations






























Interactive Weather Map New forecast layout! Learn more

10-Day Weather Forecast

Advertisements
Track Severe Weather on mobile